Terminal Aerodrome Forecast
Issued by NWS Tuscon, AZ

Home | Current Version | Previous Version | Text Only | Print | Product List | Glossary On
Versions: 1 2 3 4 5 6 7 8 9 10 11 12 13 14 15 16 17
000
FTUS45 KTWC 212000 AAA
TAFDUG
TAF AMD
KDUG 212000Z 2120/2218 13008KT P6SM VCTS SCT040CB BKN110
      TEMPO 2120/2122 VRB20G30KT TSRA BKN040CB
     FM212300 35009KT P6SM VCSH SCT050 BKN100
     FM220300 10006KT P6SM SCT070 BKN140=

USA.gov is the U.S. government's official web portal to all federal, state and local government web resources and services.